sensor_id;sensor_type;location;lat;lon;timestamp;pressure;altitude;pressure_sealevel;temperature;humidity
61697;BME280;47610;52.252;20.922;2023-05-12T00:03:24;100869.31;;;12.39;52.04
61697;BME280;47610;52.252;20.922;2023-05-12T00:08:27;100876.94;;;12.34;51.99
61697;BME280;47610;52.252;20.922;2023-05-12T00:13:30;100871.04;;;12.32;51.85
61697;BME280;47610;52.252;20.922;2023-05-12T00:18:33;100876.83;;;12.29;51.88
61697;BME280;47610;52.252;20.922;2023-05-12T00:23:36;100875.56;;;12.27;51.81
61697;BME280;47610;52.252;20.922;2023-05-12T00:28:40;100870.42;;;12.22;51.94
61697;BME280;47610;52.252;20.922;2023-05-12T00:33:43;100875.83;;;12.21;51.77
61697;BME280;47610;52.252;20.922;2023-05-12T00:38:46;100872.56;;;12.17;51.76
61697;BME280;47610;52.252;20.922;2023-05-12T00:43:50;100879.23;;;12.14;51.94
61697;BME280;47610;52.252;20.922;2023-05-12T00:48:53;100882.87;;;12.08;52.18
61697;BME280;47610;52.252;20.922;2023-05-12T00:53:57;100878.02;;;12.03;52.41
61697;BME280;47610;52.252;20.922;2023-05-12T00:59:00;100888.16;;;12.01;52.45
61697;BME280;47610;52.252;20.922;2023-05-12T01:04:04;100889.04;;;11.98;52.66
61697;BME280;47610;52.252;20.922;2023-05-12T01:09:07;100892.84;;;11.93;52.98
61697;BME280;47610;52.252;20.922;2023-05-12T01:14:11;100897.41;;;11.89;53.50
61697;BME280;47610;52.252;20.922;2023-05-12T01:19:22;100897.30;;;11.84;53.74
61697;BME280;47610;52.252;20.922;2023-05-12T01:24:29;100906.11;;;11.79;54.24
61697;BME280;47610;52.252;20.922;2023-05-12T01:29:34;100904.60;;;11.72;54.76
61697;BME280;47610;52.252;20.922;2023-05-12T01:34:38;100906.30;;;11.69;54.89
61697;BME280;47610;52.252;20.922;2023-05-12T01:39:42;100905.95;;;11.64;55.41
61697;BME280;47610;52.252;20.922;2023-05-12T01:44:45;100905.88;;;11.59;55.82
61697;BME280;47610;52.252;20.922;2023-05-12T01:49:48;100906.74;;;11.55;56.11
61697;BME280;47610;52.252;20.922;2023-05-12T01:54:51;100907.78;;;11.52;56.60
61697;BME280;47610;52.252;20.922;2023-05-12T01:59:54;100910.57;;;11.48;56.87
61697;BME280;47610;52.252;20.922;2023-05-12T02:04:58;100907.73;;;11.41;57.47
61697;BME280;47610;52.252;20.922;2023-05-12T02:10:01;100910.29;;;11.36;57.89
61697;BME280;47610;52.252;20.922;2023-05-12T02:15:05;100904.43;;;11.31;58.39
61697;BME280;47610;52.252;20.922;2023-05-12T02:20:10;100900.39;;;11.28;58.74
61697;BME280;47610;52.252;20.922;2023-05-12T02:25:13;100906.48;;;11.25;59.07
61697;BME280;47610;52.252;20.922;2023-05-12T02:30:16;100913.52;;;11.22;59.36
61697;BME280;47610;52.252;20.922;2023-05-12T02:35:20;100914.23;;;11.21;59.75
61697;BME280;47610;52.252;20.922;2023-05-12T02:40:23;100918.83;;;11.17;60.10
61697;BME280;47610;52.252;20.922;2023-05-12T02:45:26;100923.16;;;11.13;60.52
61697;BME280;47610;52.252;20.922;2023-05-12T02:50:30;100924.92;;;11.10;60.78
61697;BME280;47610;52.252;20.922;2023-05-12T02:55:33;100928.27;;;11.08;61.16
61697;BME280;47610;52.252;20.922;2023-05-12T03:00:36;100934.00;;;11.07;61.75
61697;BME280;47610;52.252;20.922;2023-05-12T03:05:40;100936.13;;;11.05;62.25
61697;BME280;47610;52.252;20.922;2023-05-12T03:10:43;100940.91;;;11.04;62.55
61697;BME280;47610;52.252;20.922;2023-05-12T03:15:46;100936.95;;;11.05;62.69
61697;BME280;47610;52.252;20.922;2023-05-12T03:20:49;100933.31;;;11.12;62.91
61697;BME280;47610;52.252;20.922;2023-05-12T03:25:53;100938.30;;;11.83;62.28
61697;BME280;47610;52.252;20.922;2023-05-12T03:30:56;100941.73;;;12.64;59.48
61697;BME280;47610;52.252;20.922;2023-05-12T03:35:59;100943.31;;;13.05;56.13
61697;BME280;47610;52.252;20.922;2023-05-12T03:41:06;100948.36;;;12.86;54.59
61697;BME280;47610;52.252;20.922;2023-05-12T03:46:09;100948.13;;;12.53;54.95
61697;BME280;47610;52.252;20.922;2023-05-12T03:51:12;100951.77;;;12.43;55.55
61697;BME280;47610;52.252;20.922;2023-05-12T03:56:15;100953.89;;;12.78;55.15
61697;BME280;47610;52.252;20.922;2023-05-12T04:01:19;100961.15;;;13.70;53.93
61697;BME280;47610;52.252;20.922;2023-05-12T04:06:22;100968.46;;;15.89;49.18
61697;BME280;47610;52.252;20.922;2023-05-12T04:11:25;100976.61;;;18.03;41.94
61697;BME280;47610;52.252;20.922;2023-05-12T04:16:28;100977.48;;;19.92;35.98
61697;BME280;47610;52.252;20.922;2023-05-12T04:21:32;100984.59;;;21.65;32.03
61697;BME280;47610;52.252;20.922;2023-05-12T04:26:35;100990.64;;;23.13;28.56
61697;BME280;47610;52.252;20.922;2023-05-12T04:31:39;100992.73;;;24.71;26.44
61697;BME280;47610;52.252;20.922;2023-05-12T04:36:42;100994.76;;;26.01;24.30
61697;BME280;47610;52.252;20.922;2023-05-12T04:41:45;101004.14;;;27.27;22.73
61697;BME280;47610;52.252;20.922;2023-05-12T04:46:48;101007.64;;;28.48;21.53
61697;BME280;47610;52.252;20.922;2023-05-12T04:51:51;101009.41;;;29.52;20.17
61697;BME280;47610;52.252;20.922;2023-05-12T04:56:55;101014.23;;;30.77;19.35
61697;BME280;47610;52.252;20.922;2023-05-12T05:01:58;101020.15;;;31.90;18.32
61697;BME280;47610;52.252;20.922;2023-05-12T05:07:02;101020.77;;;32.80;17.52
61697;BME280;47610;52.252;20.922;2023-05-12T05:12:08;101023.34;;;33.41;16.57
61697;BME280;47610;52.252;20.922;2023-05-12T05:17:11;101027.02;;;32.01;16.80
61697;BME280;47610;52.252;20.922;2023-05-12T05:22:14;101029.20;;;30.92;17.41
61697;BME280;47610;52.252;20.922;2023-05-12T05:27:18;101025.03;;;28.71;18.45
61697;BME280;47610;52.252;20.922;2023-05-12T05:32:21;101018.50;;;25.76;20.63
61697;BME280;47610;52.252;20.922;2023-05-12T05:37:24;101022.81;;;24.39;22.25
61697;BME280;47610;52.252;20.922;2023-05-12T05:42:27;101028.71;;;23.22;23.69
61697;BME280;47610;52.252;20.922;2023-05-12T05:47:30;101034.05;;;22.55;24.75
61697;BME280;47610;52.252;20.922;2023-05-12T05:52:34;101033.79;;;22.30;25.54
61697;BME280;47610;52.252;20.922;2023-05-12T05:57:37;101036.34;;;22.32;25.82
61697;BME280;47610;52.252;20.922;2023-05-12T06:02:40;101039.48;;;21.49;26.69
61697;BME280;47610;52.252;20.922;2023-05-12T06:07:43;101037.41;;;21.47;27.30
61697;BME280;47610;52.252;20.922;2023-05-12T06:12:46;101040.78;;;20.89;28.10
61697;BME280;47610;52.252;20.922;2023-05-12T06:17:50;101042.25;;;20.30;28.77
61697;BME280;47610;52.252;20.922;2023-05-12T06:22:53;101043.88;;;21.41;29.20
61697;BME280;47610;52.252;20.922;2023-05-12T06:27:56;101049.92;;;23.54;26.39
61697;BME280;47610;52.252;20.922;2023-05-12T06:33:00;101052.80;;;22.49;26.43
61697;BME280;47610;52.252;20.922;2023-05-12T06:38:03;101054.69;;;22.22;26.67
61697;BME280;47610;52.252;20.922;2023-05-12T06:43:06;101052.91;;;21.95;27.19
61697;BME280;47610;52.252;20.922;2023-05-12T06:48:09;101052.77;;;21.63;27.78
61697;BME280;47610;52.252;20.922;2023-05-12T06:53:13;101054.14;;;22.37;27.48
61697;BME280;47610;52.252;20.922;2023-05-12T06:58:16;101056.34;;;22.86;27.05
61697;BME280;47610;52.252;20.922;2023-05-12T07:03:19;101052.77;;;22.56;27.30
61697;BME280;47610;52.252;20.922;2023-05-12T07:08:22;101054.77;;;22.22;28.08
61697;BME280;47610;52.252;20.922;2023-05-12T07:13:25;101049.36;;;21.92;28.52
61697;BME280;47610;52.252;20.922;2023-05-12T07:18:29;101057.54;;;22.84;27.68
61697;BME280;47610;52.252;20.922;2023-05-12T07:23:32;101053.70;;;23.47;26.72
61697;BME280;47610;52.252;20.922;2023-05-12T07:28:36;101052.77;;;22.54;27.61
61697;BME280;47610;52.252;20.922;2023-05-12T07:33:39;101055.94;;;22.21;28.34
61697;BME280;47610;52.252;20.922;2023-05-12T07:38:42;101053.81;;;22.52;27.18
61697;BME280;47610;52.252;20.922;2023-05-12T07:43:46;101052.16;;;22.71;26.44
61697;BME280;47610;52.252;20.922;2023-05-12T07:48:49;101050.71;;;22.63;25.70
61697;BME280;47610;52.252;20.922;2023-05-12T07:53:52;101062.42;;;22.53;25.79
61697;BME280;47610;52.252;20.922;2023-05-12T07:58:55;101057.47;;;22.80;25.79
61697;BME280;47610;52.252;20.922;2023-05-12T08:03:59;101058.55;;;23.43;24.79
61697;BME280;47610;52.252;20.922;2023-05-12T08:09:02;101069.20;;;23.95;23.82
61697;BME280;47610;52.252;20.922;2023-05-12T08:14:05;101057.00;;;23.86;23.67
61697;BME280;47610;52.252;20.922;2023-05-12T08:19:08;101062.12;;;23.58;22.94
61697;BME280;47610;52.252;20.922;2023-05-12T08:24:11;101060.59;;;24.30;21.35
61697;BME280;47610;52.252;20.922;2023-05-12T08:29:14;101061.83;;;25.90;20.47
61697;BME280;47610;52.252;20.922;2023-05-12T08:34:18;101060.17;;;27.19;19.09
61697;BME280;47610;52.252;20.922;2023-05-12T08:39:21;101069.21;;;28.27;17.35
61697;BME280;47610;52.252;20.922;2023-05-12T08:44:25;101071.40;;;29.30;16.18
61697;BME280;47610;52.252;20.922;2023-05-12T08:49:30;101068.87;;;29.71;15.31
61697;BME280;47610;52.252;20.922;2023-05-12T08:54:33;101058.50;;;30.50;15.47
61697;BME280;47610;52.252;20.922;2023-05-12T08:59:38;101066.30;;;30.64;14.78
61697;BME280;47610;52.252;20.922;2023-05-12T09:04:44;101065.59;;;30.91;14.76
61697;BME280;47610;52.252;20.922;2023-05-12T09:09:48;101060.09;;;30.55;14.84
61697;BME280;47610;52.252;20.922;2023-05-12T09:14:56;101060.23;;;30.28;14.82
61697;BME280;47610;52.252;20.922;2023-05-12T09:20:02;101056.02;;;29.85;15.23
61697;BME280;47610;52.252;20.922;2023-05-12T09:25:16;101065.83;;;29.73;15.32
61697;BME280;47610;52.252;20.922;2023-05-12T09:30:29;101047.77;;;29.61;15.13
61697;BME280;47610;52.252;20.922;2023-05-12T09:35:38;101046.71;;;29.76;14.99
61697;BME280;47610;52.252;20.922;2023-05-12T09:40:41;101050.73;;;29.73;15.00
61697;BME280;47610;52.252;20.922;2023-05-12T09:45:46;101043.58;;;29.20;15.04
61697;BME280;47610;52.252;20.922;2023-05-12T09:50:50;101042.54;;;28.76;15.83
61697;BME280;47610;52.252;20.922;2023-05-12T09:55:54;101047.10;;;27.88;16.30
61697;BME280;47610;52.252;20.922;2023-05-12T10:00:57;101034.60;;;26.46;17.20
61697;BME280;47610;52.252;20.922;2023-05-12T10:06:00;101023.42;;;25.08;18.40
61697;BME280;47610;52.252;20.922;2023-05-12T10:11:05;101028.19;;;24.18;19.43
61697;BME280;47610;52.252;20.922;2023-05-12T10:16:09;101020.17;;;23.45;20.09
61697;BME280;47610;52.252;20.922;2023-05-12T10:21:13;101017.87;;;22.66;20.32
61697;BME280;47610;52.252;20.922;2023-05-12T10:26:17;101022.35;;;22.21;21.46
61697;BME280;47610;52.252;20.922;2023-05-12T10:31:22;101015.77;;;22.17;21.85
61697;BME280;47610;52.252;20.922;2023-05-12T10:36:26;101008.00;;;22.13;22.09
61697;BME280;47610;52.252;20.922;2023-05-12T10:41:31;101011.36;;;22.13;21.92
61697;BME280;47610;52.252;20.922;2023-05-12T10:46:34;101008.75;;;22.04;21.50
61697;BME280;47610;52.252;20.922;2023-05-12T10:51:49;101015.55;;;21.80;21.42
61697;BME280;47610;52.252;20.922;2023-05-12T10:56:56;101015.91;;;21.59;21.41
61697;BME280;47610;52.252;20.922;2023-05-12T11:02:01;100999.46;;;21.56;21.79
61697;BME280;47610;52.252;20.922;2023-05-12T11:07:06;101003.09;;;21.56;21.54
61697;BME280;47610;52.252;20.922;2023-05-12T11:12:10;100997.16;;;21.45;21.54
61697;BME280;47610;52.252;20.922;2023-05-12T11:17:14;101004.55;;;21.40;22.39
61697;BME280;47610;52.252;20.922;2023-05-12T11:22:19;100995.62;;;21.41;22.93
61697;BME280;47610;52.252;20.922;2023-05-12T11:27:23;100993.72;;;21.29;23.10
61697;BME280;47610;52.252;20.922;2023-05-12T11:32:26;100993.19;;;21.17;23.03
61697;BME280;47610;52.252;20.922;2023-05-12T11:37:34;100988.86;;;21.04;23.17
61697;BME280;47610;52.252;20.922;2023-05-12T11:42:38;100986.10;;;20.94;23.00
61697;BME280;47610;52.252;20.922;2023-05-12T11:47:42;100989.70;;;20.91;23.02
61697;BME280;47610;52.252;20.922;2023-05-12T11:52:43;100994.64;;;20.89;23.89
61697;BME280;47610;52.252;20.922;2023-05-12T11:57:55;100985.89;;;20.87;23.81
61697;BME280;47610;52.252;20.922;2023-05-12T12:03:14;100977.30;;;20.74;23.69
61697;BME280;47610;52.252;20.922;2023-05-12T12:08:18;100987.24;;;20.57;23.82
61697;BME280;47610;52.252;20.922;2023-05-12T12:13:22;100992.35;;;20.48;23.33
61697;BME280;47610;52.252;20.922;2023-05-12T12:18:25;100983.88;;;20.36;23.48
61697;BME280;47610;52.252;20.922;2023-05-12T12:23:28;100971.77;;;20.40;23.50
61697;BME280;47610;52.252;20.922;2023-05-12T12:28:32;100983.42;;;20.41;23.52
61697;BME280;47610;52.252;20.922;2023-05-12T12:33:35;100979.59;;;20.31;23.63
61697;BME280;47610;52.252;20.922;2023-05-12T12:38:38;100977.98;;;20.29;23.62
61697;BME280;47610;52.252;20.922;2023-05-12T12:43:42;100982.40;;;20.18;23.80
61697;BME280;47610;52.252;20.922;2023-05-12T12:48:45;100977.42;;;19.99;23.79
61697;BME280;47610;52.252;20.922;2023-05-12T12:53:48;100973.11;;;19.96;23.63
61697;BME280;47610;52.252;20.922;2023-05-12T12:58:51;100973.05;;;19.96;23.66
61697;BME280;47610;52.252;20.922;2023-05-12T13:03:54;100963.52;;;20.01;23.92
61697;BME280;47610;52.252;20.922;2023-05-12T13:08:58;100955.89;;;19.94;23.99
61697;BME280;47610;52.252;20.922;2023-05-12T13:14:01;100956.92;;;19.93;24.25
61697;BME280;47610;52.252;20.922;2023-05-12T13:19:04;100944.66;;;19.89;24.09
61697;BME280;47610;52.252;20.922;2023-05-12T13:24:07;100948.32;;;19.90;24.63
61697;BME280;47610;52.252;20.922;2023-05-12T13:29:10;100950.65;;;19.90;24.16
61697;BME280;47610;52.252;20.922;2023-05-12T13:34:14;100944.64;;;19.85;23.89
61697;BME280;47610;52.252;20.922;2023-05-12T13:39:18;100937.55;;;19.80;24.15
61697;BME280;47610;52.252;20.922;2023-05-12T13:44:21;100941.94;;;19.75;24.12
61697;BME280;47610;52.252;20.922;2023-05-12T13:49:24;100936.07;;;19.69;24.46
61697;BME280;47610;52.252;20.922;2023-05-12T13:54:27;100932.84;;;19.69;24.40
61697;BME280;47610;52.252;20.922;2023-05-12T13:59:30;100927.80;;;19.66;24.51
61697;BME280;47610;52.252;20.922;2023-05-12T14:04:34;100932.70;;;19.63;24.22
61697;BME280;47610;52.252;20.922;2023-05-12T14:09:37;100926.13;;;19.54;24.14
61697;BME280;47610;52.252;20.922;2023-05-12T14:14:40;100923.40;;;19.48;24.17
61697;BME280;47610;52.252;20.922;2023-05-12T14:19:43;100918.64;;;19.45;24.13
61697;BME280;47610;52.252;20.922;2023-05-12T14:24:46;100919.51;;;19.42;24.65
61697;BME280;47610;52.252;20.922;2023-05-12T14:29:49;100917.43;;;19.42;24.77
61697;BME280;47610;52.252;20.922;2023-05-12T14:34:53;100924.77;;;19.50;24.50
61697;BME280;47610;52.252;20.922;2023-05-12T14:39:56;100927.05;;;19.49;24.39
61697;BME280;47610;52.252;20.922;2023-05-12T14:44:59;100926.37;;;19.37;24.58
61697;BME280;47610;52.252;20.922;2023-05-12T14:50:02;100927.19;;;19.26;24.45
61697;BME280;47610;52.252;20.922;2023-05-12T14:55:09;100919.25;;;19.21;24.80
61697;BME280;47610;52.252;20.922;2023-05-12T15:00:14;100914.39;;;19.21;24.95
61697;BME280;47610;52.252;20.922;2023-05-12T15:05:18;100910.78;;;19.22;24.88
61697;BME280;47610;52.252;20.922;2023-05-12T15:10:21;100911.66;;;19.27;25.10
61697;BME280;47610;52.252;20.922;2023-05-12T15:15:24;100915.02;;;19.30;25.11
61697;BME280;47610;52.252;20.922;2023-05-12T15:20:27;100914.58;;;19.31;25.08
61697;BME280;47610;52.252;20.922;2023-05-12T15:25:30;100909.73;;;19.36;25.39
61697;BME280;47610;52.252;20.922;2023-05-12T15:30:33;100911.89;;;19.43;25.48
61697;BME280;47610;52.252;20.922;2023-05-12T15:35:37;100909.07;;;19.44;25.40
61697;BME280;47610;52.252;20.922;2023-05-12T15:40:41;100907.73;;;19.45;25.65
61697;BME280;47610;52.252;20.922;2023-05-12T15:45:44;100911.67;;;19.48;25.68
61697;BME280;47610;52.252;20.922;2023-05-12T15:50:48;100912.06;;;19.46;25.45
61697;BME280;47610;52.252;20.922;2023-05-12T15:55:59;100909.20;;;19.41;25.35
61697;BME280;47610;52.252;20.922;2023-05-12T16:01:02;100907.27;;;19.36;25.16
61697;BME280;47610;52.252;20.922;2023-05-12T16:06:06;100904.08;;;19.35;25.46
61697;BME280;47610;52.252;20.922;2023-05-12T16:11:09;100897.21;;;19.36;25.75
61697;BME280;47610;52.252;20.922;2023-05-12T16:16:12;100896.19;;;19.40;25.82
61697;BME280;47610;52.252;20.922;2023-05-12T16:21:16;100895.89;;;19.40;25.37
61697;BME280;47610;52.252;20.922;2023-05-12T16:26:19;100894.71;;;19.34;25.17
61697;BME280;47610;52.252;20.922;2023-05-12T16:31:22;100904.09;;;19.22;25.08
61697;BME280;47610;52.252;20.922;2023-05-12T16:36:25;100904.63;;;19.11;25.24
61697;BME280;47610;52.252;20.922;2023-05-12T16:41:28;100904.94;;;19.03;25.61
61697;BME280;47610;52.252;20.922;2023-05-12T16:46:32;100903.56;;;18.96;25.74
61697;BME280;47610;52.252;20.922;2023-05-12T16:51:35;100905.80;;;18.87;25.93
61697;BME280;47610;52.252;20.922;2023-05-12T16:56:38;100904.21;;;18.81;26.28
61697;BME280;47610;52.252;20.922;2023-05-12T17:01:42;100903.64;;;18.78;26.57
61697;BME280;47610;52.252;20.922;2023-05-12T17:06:45;100907.72;;;18.75;26.79
61697;BME280;47610;52.252;20.922;2023-05-12T17:11:48;100904.04;;;18.72;27.03
61697;BME280;47610;52.252;20.922;2023-05-12T17:16:51;100907.20;;;18.70;27.11
61697;BME280;47610;52.252;20.922;2023-05-12T17:21:55;100904.88;;;18.67;27.13
61697;BME280;47610;52.252;20.922;2023-05-12T17:26:58;100911.76;;;18.65;27.45
61697;BME280;47610;52.252;20.922;2023-05-12T17:32:01;100913.62;;;18.62;27.80
61697;BME280;47610;52.252;20.922;2023-05-12T17:37:04;100917.46;;;18.59;28.26
61697;BME280;47610;52.252;20.922;2023-05-12T17:42:08;100917.71;;;18.58;28.33
61697;BME280;47610;52.252;20.922;2023-05-12T17:47:11;100925.77;;;18.57;28.58
61697;BME280;47610;52.252;20.922;2023-05-12T17:52:14;100927.69;;;18.54;28.33
61697;BME280;47610;52.252;20.922;2023-05-12T17:57:18;100930.70;;;18.49;28.47
61697;BME280;47610;52.252;20.922;2023-05-12T18:02:21;100932.79;;;18.48;28.40
61697;BME280;47610;52.252;20.922;2023-05-12T18:07:24;100931.91;;;18.45;28.52
61697;BME280;47610;52.252;20.922;2023-05-12T18:12:28;100943.42;;;18.37;28.58
61697;BME280;47610;52.252;20.922;2023-05-12T18:17:31;100944.15;;;18.27;28.51
61697;BME280;47610;52.252;20.922;2023-05-12T18:22:34;100954.30;;;18.18;28.77
61697;BME280;47610;52.252;20.922;2023-05-12T18:27:37;100956.64;;;18.07;28.95
61697;BME280;47610;52.252;20.922;2023-05-12T18:32:41;100957.95;;;17.95;29.20
61697;BME280;47610;52.252;20.922;2023-05-12T18:37:44;100958.70;;;17.80;29.56
61697;BME280;47610;52.252;20.922;2023-05-12T18:42:47;100962.42;;;17.66;29.92
61697;BME280;47610;52.252;20.922;2023-05-12T18:47:51;100968.34;;;17.54;30.30
61697;BME280;47610;52.252;20.922;2023-05-12T18:52:54;100969.52;;;17.42;30.82
61697;BME280;47610;52.252;20.922;2023-05-12T18:57:57;100969.91;;;17.30;31.22
61697;BME280;47610;52.252;20.922;2023-05-12T19:03:01;100973.36;;;17.21;31.53
61697;BME280;47610;52.252;20.922;2023-05-12T19:08:04;100973.60;;;17.17;32.01
61697;BME280;47610;52.252;20.922;2023-05-12T19:13:08;100975.58;;;17.15;32.23
61697;BME280;47610;52.252;20.922;2023-05-12T19:18:11;100979.00;;;17.14;32.30
61697;BME280;47610;52.252;20.922;2023-05-12T19:23:14;100980.69;;;17.12;32.92
61697;BME280;47610;52.252;20.922;2023-05-12T19:28:17;100983.16;;;17.08;33.06
61697;BME280;47610;52.252;20.922;2023-05-12T19:33:21;100989.00;;;17.01;33.24
61697;BME280;47610;52.252;20.922;2023-05-12T19:38:24;100989.13;;;16.94;33.51
61697;BME280;47610;52.252;20.922;2023-05-12T19:43:27;100991.27;;;16.86;34.24
61697;BME280;47610;52.252;20.922;2023-05-12T19:48:30;100994.77;;;16.77;34.93
61697;BME280;47610;52.252;20.922;2023-05-12T19:53:33;100992.95;;;16.72;35.52
61697;BME280;47610;52.252;20.922;2023-05-12T19:58:37;100995.23;;;16.68;35.70
61697;BME280;47610;52.252;20.922;2023-05-12T20:03:40;100995.42;;;16.63;37.06
61697;BME280;47610;52.252;20.922;2023-05-12T20:08:43;100996.06;;;16.57;38.21
61697;BME280;47610;52.252;20.922;2023-05-12T20:13:46;101002.05;;;16.51;39.48
61697;BME280;47610;52.252;20.922;2023-05-12T20:18:49;101001.86;;;16.45;40.44
61697;BME280;47610;52.252;20.922;2023-05-12T20:23:53;100999.59;;;16.37;41.60
61697;BME280;47610;52.252;20.922;2023-05-12T20:28:56;100999.14;;;16.29;42.55
61697;BME280;47610;52.252;20.922;2023-05-12T20:33:59;100996.14;;;16.21;42.82
61697;BME280;47610;52.252;20.922;2023-05-12T20:39:02;100993.96;;;16.14;43.24
61697;BME280;47610;52.252;20.922;2023-05-12T20:44:06;100993.72;;;16.07;44.49
61697;BME280;47610;52.252;20.922;2023-05-12T20:49:09;100996.50;;;15.98;45.31
61697;BME280;47610;52.252;20.922;2023-05-12T20:54:12;100995.01;;;15.89;46.83
61697;BME280;47610;52.252;20.922;2023-05-12T20:59:15;100998.91;;;15.78;48.16
61697;BME280;47610;52.252;20.922;2023-05-12T21:04:19;100999.18;;;15.66;49.99
61697;BME280;47610;52.252;20.922;2023-05-12T21:09:22;101000.88;;;15.52;51.28
61697;BME280;47610;52.252;20.922;2023-05-12T21:14:25;101002.15;;;15.43;52.83
61697;BME280;47610;52.252;20.922;2023-05-12T21:19:28;101007.21;;;15.34;54.25
61697;BME280;47610;52.252;20.922;2023-05-12T21:24:32;101008.70;;;15.26;55.79
61697;BME280;47610;52.252;20.922;2023-05-12T21:29:35;101010.15;;;15.12;57.45
61697;BME280;47610;52.252;20.922;2023-05-12T21:34:38;101009.04;;;14.97;59.14
61697;BME280;47610;52.252;20.922;2023-05-12T21:39:42;101006.52;;;14.83;60.54
61697;BME280;47610;52.252;20.922;2023-05-12T21:44:45;101009.98;;;14.72;61.56
61697;BME280;47610;52.252;20.922;2023-05-12T21:49:54;101015.36;;;14.68;62.28
61697;BME280;47610;52.252;20.922;2023-05-12T21:54:59;101020.30;;;14.61;63.87
61697;BME280;47610;52.252;20.922;2023-05-12T22:00:03;101025.95;;;14.46;65.77
61697;BME280;47610;52.252;20.922;2023-05-12T22:05:08;101028.26;;;14.30;64.77
61697;BME280;47610;52.252;20.922;2023-05-12T22:10:09;101026.86;;;14.22;63.35
61697;BME280;47610;52.252;20.922;2023-05-12T22:15:13;101025.94;;;14.16;61.68
61697;BME280;47610;52.252;20.922;2023-05-12T22:20:16;101022.75;;;14.12;60.52
61697;BME280;47610;52.252;20.922;2023-05-12T22:25:20;101022.20;;;14.09;60.22
61697;BME280;47610;52.252;20.922;2023-05-12T22:30:23;101021.34;;;14.04;59.76
61697;BME280;47610;52.252;20.922;2023-05-12T22:35:26;101017.65;;;14.00;59.74
61697;BME280;47610;52.252;20.922;2023-05-12T22:45:32;101022.84;;;13.87;61.28
61697;BME280;47610;52.252;20.922;2023-05-12T22:50:35;101020.23;;;13.79;62.65
61697;BME280;47610;52.252;20.922;2023-05-12T22:55:39;101020.95;;;13.73;63.64
61697;BME280;47610;52.252;20.922;2023-05-12T23:00:42;101020.09;;;13.67;64.49
61697;BME280;47610;52.252;20.922;2023-05-12T23:05:45;101019.50;;;13.62;64.73
61697;BME280;47610;52.252;20.922;2023-05-12T23:10:48;101021.54;;;13.58;65.53
61697;BME280;47610;52.252;20.922;2023-05-12T23:15:51;101019.73;;;13.57;66.85
61697;BME280;47610;52.252;20.922;2023-05-12T23:20:55;101017.30;;;13.55;68.22
61697;BME280;47610;52.252;20.922;2023-05-12T23:25:58;101021.06;;;13.55;69.42
61697;BME280;47610;52.252;20.922;2023-05-12T23:31:01;101015.27;;;13.52;69.83
61697;BME280;47610;52.252;20.922;2023-05-12T23:36:05;101016.80;;;13.49;71.01
61697;BME280;47610;52.252;20.922;2023-05-12T23:41:08;101018.25;;;13.51;71.54
61697;BME280;47610;52.252;20.922;2023-05-12T23:46:11;101016.54;;;13.49;71.96
61697;BME280;47610;52.252;20.922;2023-05-12T23:51:15;101014.11;;;13.42;72.73
61697;BME280;47610;52.252;20.922;2023-05-12T23:56:18;101006.77;;;13.34;73.32
